createdAt,value
2018-06-19T00:01:56.263Z,23.50
2018-06-19T00:04:23.537Z,23.00
2018-06-19T00:06:50.908Z,26.02
2018-06-19T00:09:18.226Z,25.15
2018-06-19T00:11:46.097Z,25.10
2018-06-19T00:14:13.369Z,22.48
2018-06-19T00:16:40.700Z,23.42
2018-06-19T00:19:08.367Z,23.67
2018-06-19T00:21:38.145Z,22.48
2018-06-19T00:24:05.533Z,21.65
2018-06-19T00:26:33.100Z,23.87
2018-06-19T00:29:00.456Z,26.42
2018-06-19T00:31:27.801Z,24.18
2018-06-19T00:33:55.125Z,24.50
2018-06-19T00:36:22.408Z,23.30
2018-06-19T00:38:49.652Z,23.20
2018-06-19T00:41:16.963Z,23.87
2018-06-19T00:43:44.236Z,29.20
2018-06-19T00:46:11.830Z,31.97
2018-06-19T00:48:39.136Z,25.33
2018-06-19T00:51:06.417Z,28.90
2018-06-19T00:53:33.726Z,26.87
2018-06-19T00:56:12.782Z,24.43
2018-06-19T00:58:40.233Z,28.93
2018-06-19T01:01:07.488Z,29.15
2018-06-19T01:03:34.910Z,29.80
2018-06-19T01:06:02.244Z,29.02
2018-06-19T01:08:29.550Z,28.55
2018-06-19T01:10:56.817Z,29.12
2018-06-19T01:13:24.073Z,27.87
2018-06-19T01:15:51.505Z,27.40
2018-06-19T01:18:18.797Z,29.87
2018-06-19T01:20:46.043Z,29.18
2018-06-19T01:23:13.314Z,27.42
2018-06-19T01:25:40.637Z,32.37
2018-06-19T01:28:08.296Z,27.27
2018-06-19T01:30:35.739Z,28.27
2018-06-19T01:33:02.945Z,32.65
2018-06-19T01:35:30.185Z,25.52
2018-06-19T01:37:57.527Z,30.17
2018-06-19T01:40:24.753Z,33.20
2018-06-19T01:42:52.089Z,32.03
2018-06-19T01:45:19.431Z,27.50
2018-06-19T01:47:46.660Z,27.42
2018-06-19T01:50:13.922Z,34.92
2018-06-19T01:52:41.182Z,33.08
2018-06-19T01:55:09.421Z,31.05
2018-06-19T01:57:36.674Z,29.90
2018-06-19T02:00:03.965Z,31.07
2018-06-19T02:02:31.225Z,28.50
2018-06-19T02:04:58.588Z,34.27
2018-06-19T02:07:25.865Z,40.33
2018-06-19T02:09:53.120Z,34.70
2018-06-19T02:12:20.581Z,30.65
2018-06-19T02:14:47.858Z,33.20
2018-06-19T02:17:15.392Z,36.55
2018-06-19T02:19:42.742Z,31.02
2018-06-19T02:22:10.062Z,37.20
2018-06-19T02:24:37.286Z,30.72
2018-06-19T02:27:04.665Z,33.98
2018-06-19T02:29:31.952Z,37.60
2018-06-19T02:31:59.454Z,34.67
2018-06-19T02:34:26.701Z,39.67
2018-06-19T02:36:53.969Z,37.50
2018-06-19T02:39:21.224Z,33.92
2018-06-19T02:41:48.584Z,36.00
2018-06-19T02:44:15.856Z,31.97
2018-06-19T02:46:43.149Z,33.55
2018-06-19T02:49:10.433Z,36.07
2018-06-19T02:51:38.205Z,35.10
2018-06-19T02:54:05.483Z,33.53
2018-06-19T02:56:32.844Z,32.70
2018-06-19T02:59:00.321Z,35.68
2018-06-19T03:01:27.602Z,35.85
2018-06-19T03:03:54.888Z,31.90
2018-06-19T03:06:22.251Z,32.23
2018-06-19T03:08:49.556Z,38.33
2018-06-19T03:11:17.669Z,35.60
2018-06-19T03:13:44.943Z,38.05
2018-06-19T03:16:12.201Z,34.83
2018-06-19T03:18:39.531Z,34.43
2018-06-19T03:21:06.956Z,36.00
2018-06-19T03:23:34.192Z,34.30
2018-06-19T03:26:01.561Z,36.23
2018-06-19T03:28:28.823Z,37.03
2018-06-19T03:30:56.214Z,36.70
2018-06-19T03:33:23.485Z,33.20
2018-06-19T03:35:50.741Z,33.73
2018-06-19T03:38:18.150Z,35.48
2018-06-19T03:40:45.359Z,35.00
2018-06-19T03:43:12.657Z,35.65
2018-06-19T03:45:39.954Z,36.13
2018-06-19T03:48:07.212Z,34.33
2018-06-19T03:50:34.481Z,36.05
2018-06-19T03:53:01.817Z,33.65
2018-06-19T03:55:29.508Z,32.10
2018-06-19T03:57:56.781Z,30.48
2018-06-19T04:00:24.025Z,35.95
2018-06-19T04:02:51.333Z,36.33
2018-06-19T04:05:18.608Z,31.42
2018-06-19T04:07:45.787Z,35.15
2018-06-19T04:10:13.219Z,35.60
2018-06-19T04:12:41.144Z,32.10
2018-06-19T04:15:08.488Z,32.73
2018-06-19T04:17:37.336Z,31.05
2018-06-19T04:20:04.657Z,31.12
2018-06-19T04:22:31.946Z,32.23
2018-06-19T04:24:59.182Z,31.33
2018-06-19T04:27:27.025Z,33.08
2018-06-19T04:29:54.329Z,31.60
2018-06-19T04:32:21.981Z,29.10
2018-06-19T04:34:49.321Z,25.85
2018-06-19T04:37:16.553Z,28.30
2018-06-19T04:39:43.769Z,30.80
2018-06-19T04:42:11.148Z,32.50
2018-06-19T04:44:38.342Z,33.40
2018-06-19T04:47:05.613Z,29.63
2018-06-19T04:49:33.164Z,30.40
2018-06-19T04:52:00.542Z,31.00
2018-06-19T04:54:27.801Z,31.80
2018-06-19T04:56:55.022Z,26.30
2018-06-19T04:59:22.269Z,34.55
2018-06-19T05:01:49.660Z,26.57
2018-06-19T05:04:16.985Z,31.12
2018-06-19T05:06:46.616Z,25.50
2018-06-19T05:09:14.400Z,30.12
2018-06-19T05:11:43.194Z,30.43
2018-06-19T05:14:10.836Z,28.50
2018-06-19T05:16:38.658Z,28.57
2018-06-19T05:19:06.022Z,31.35
2018-06-19T05:21:33.470Z,28.60
2018-06-19T05:24:00.745Z,28.03
2018-06-19T05:26:28.022Z,27.70
2018-06-19T05:28:55.389Z,28.23
2018-06-19T05:31:22.954Z,29.83
2018-06-19T05:33:51.284Z,27.20
2018-06-19T05:36:18.695Z,26.07
2018-06-19T05:38:46.024Z,29.07
2018-06-19T05:41:13.321Z,29.30
2018-06-19T05:43:40.637Z,28.43
2018-06-19T05:46:07.858Z,25.97
2018-06-19T05:48:35.189Z,24.40
2018-06-19T05:51:02.713Z,33.57
2018-06-19T05:53:29.964Z,32.03
2018-06-19T05:55:57.198Z,33.67
2018-06-19T05:58:24.497Z,28.70
2018-06-19T06:00:51.760Z,24.63
2018-06-19T06:03:19.106Z,25.10
2018-06-19T06:05:46.412Z,27.40
2018-06-19T06:08:13.621Z,29.40
2018-06-19T06:10:40.902Z,23.20
2018-06-19T06:13:08.147Z,22.00
2018-06-19T06:15:35.463Z,25.20
2018-06-19T06:18:02.732Z,34.80
2018-06-19T06:20:30.040Z,21.90
2018-06-19T06:22:57.389Z,24.83
2018-06-19T06:25:24.774Z,24.30
2018-06-19T06:27:52.008Z,24.27
2018-06-19T06:30:20.125Z,19.50
2018-06-19T06:32:47.512Z,22.30
2018-06-19T06:35:14.855Z,24.35
2018-06-19T06:37:42.077Z,23.12
2018-06-19T06:40:09.397Z,30.15
2018-06-19T06:42:36.614Z,23.00
2018-06-19T06:45:04.330Z,23.02
2018-06-19T06:47:31.634Z,20.77
2018-06-19T06:49:58.909Z,22.50
2018-06-19T06:52:26.251Z,16.33
2018-06-19T06:54:53.563Z,19.73
2018-06-19T06:57:20.778Z,20.60
2018-06-19T06:59:48.107Z,21.17
2018-06-19T07:02:15.360Z,22.40
2018-06-19T07:04:42.767Z,16.80
2018-06-19T07:07:10.557Z,20.23
2018-06-19T07:09:37.761Z,17.73
2018-06-19T07:12:05.436Z,15.50
2018-06-19T07:14:32.761Z,16.90
2018-06-19T07:17:00.065Z,21.23
2018-06-19T07:19:27.309Z,16.30
2018-06-19T07:21:54.608Z,17.37
2018-06-19T07:24:22.553Z,17.63
2018-06-19T07:26:49.790Z,17.83
2018-06-19T07:29:17.022Z,14.87
2018-06-19T07:31:44.341Z,20.53
2018-06-19T07:34:12.383Z,14.60
2018-06-19T07:36:39.689Z,20.00
2018-06-19T07:39:07.965Z,18.37
2018-06-19T07:41:35.270Z,18.73
2018-06-19T07:44:02.571Z,16.53
2018-06-19T07:46:29.725Z,28.97
2018-06-19T07:48:56.941Z,15.93
2018-06-19T07:51:24.225Z,15.27
2018-06-19T07:53:51.482Z,19.07
2018-06-19T07:56:18.701Z,17.03
2018-06-19T07:58:45.955Z,15.53
2018-06-19T08:01:13.199Z,24.52
2018-06-19T08:03:40.610Z,19.70
2018-06-19T08:06:07.864Z,18.48
2018-06-19T08:08:35.125Z,16.67
2018-06-19T08:11:02.442Z,16.27
2018-06-19T08:13:29.721Z,21.45
2018-06-19T08:15:56.974Z,21.90
2018-06-19T08:18:24.272Z,16.97
2018-06-19T08:20:51.529Z,18.73
2018-06-19T08:23:18.819Z,17.60
2018-06-19T08:25:46.197Z,28.00
2018-06-19T08:28:13.784Z,17.17
2018-06-19T08:30:40.977Z,21.17
2018-06-19T08:33:08.245Z,18.92
2018-06-19T08:35:35.461Z,14.65
2018-06-19T08:38:02.737Z,18.37
2018-06-19T08:40:30.015Z,18.73
2018-06-19T08:42:57.313Z,17.25
2018-06-19T08:45:24.706Z,17.37
2018-06-19T08:47:51.916Z,20.15
2018-06-19T08:50:19.189Z,19.55
2018-06-19T08:52:46.425Z,20.85
2018-06-19T08:55:13.734Z,21.80
2018-06-19T08:57:40.984Z,23.53
2018-06-19T11:00:02.025Z,26.70
2018-06-19T11:02:29.424Z,18.48
2018-06-19T11:04:56.696Z,23.73
2018-06-19T11:07:28.668Z,24.25
2018-06-19T11:09:57.556Z,24.20
2018-06-19T11:12:25.101Z,23.60
2018-06-19T11:14:52.366Z,26.17
2018-06-19T11:17:19.609Z,22.45
2018-06-19T11:19:48.678Z,24.02
2018-06-19T11:22:15.973Z,24.12
2018-06-19T12:25:52.777Z,17.13
2018-06-19T12:35:40.245Z,16.63
2018-06-19T12:38:07.482Z,17.17
2018-06-19T12:40:34.796Z,20.40
2018-06-19T12:43:02.055Z,24.73
2018-06-19T12:45:29.286Z,20.00
2018-06-19T12:47:56.564Z,22.30
2018-06-19T12:50:36.574Z,23.43
2018-06-19T12:53:16.046Z,25.23
2018-06-19T12:55:55.253Z,16.87
2018-06-19T12:58:22.761Z,19.53
2018-06-19T13:00:50.064Z,24.40
2018-06-19T13:03:29.170Z,19.17
2018-06-19T13:06:02.215Z,17.75
2018-06-19T13:08:29.757Z,15.53
2018-06-19T13:10:57.087Z,17.35
2018-06-19T13:13:35.808Z,13.28
2018-06-19T13:16:03.133Z,16.17
2018-06-19T13:23:31.479Z,14.43
2018-06-19T13:25:59.130Z,14.20
2018-06-19T13:28:32.173Z,14.70
2018-06-19T13:31:10.990Z,16.32
2018-06-19T13:33:38.298Z,15.05
2018-06-19T13:36:05.647Z,14.65
2018-06-19T13:38:32.931Z,13.75
2018-06-19T13:41:23.064Z,18.48
2018-06-19T13:44:03.558Z,23.77
2018-06-19T13:46:31.144Z,14.63
2018-06-19T13:48:58.376Z,14.90
2018-06-19T13:51:25.884Z,15.18
2018-06-19T13:53:53.275Z,10.60
2018-06-19T13:57:36.401Z,11.20
2018-06-19T14:00:09.218Z,11.45
2018-06-19T14:02:36.546Z,11.08
2018-06-19T14:05:04.433Z,9.43
2018-06-19T14:32:54.201Z,13.93
2018-06-19T14:59:54.827Z,11.63
2018-06-19T15:02:22.089Z,9.40
2018-06-19T15:04:49.384Z,11.80
2018-06-19T15:07:16.681Z,9.13
2018-06-19T15:09:43.970Z,9.60
2018-06-19T15:12:11.780Z,5.57
2018-06-19T15:44:02.951Z,7.90
2018-06-19T15:46:30.218Z,6.20
2018-06-19T15:48:57.806Z,3.40
2018-06-19T15:51:25.357Z,7.27
2018-06-19T15:53:52.728Z,7.85
2018-06-19T15:56:20.030Z,5.28
2018-06-19T15:58:47.294Z,3.02
2018-06-19T16:01:14.636Z,4.77
2018-06-19T16:03:41.924Z,7.60
2018-06-19T16:06:09.194Z,6.00
2018-06-19T16:08:36.968Z,3.65
2018-06-19T16:11:04.235Z,6.70
2018-06-19T16:13:31.523Z,6.97
2018-06-19T16:15:59.011Z,3.42
2018-06-19T16:18:26.258Z,9.50
2018-06-19T16:20:53.562Z,4.70
2018-06-19T16:23:20.985Z,5.60
2018-06-19T16:25:48.526Z,6.03
2018-06-19T16:28:15.755Z,8.63
2018-06-19T16:30:42.960Z,6.97
2018-06-19T16:33:10.570Z,5.73
2018-06-19T16:35:37.897Z,8.20
2018-06-19T16:38:05.285Z,8.27
2018-06-19T16:40:32.572Z,9.40
2018-06-19T16:42:59.913Z,9.23
2018-06-19T16:45:27.296Z,9.60
2018-06-19T16:47:54.537Z,7.20
2018-06-19T16:55:15.434Z,7.00
2018-06-19T16:57:42.719Z,7.17
2018-06-19T17:00:10.101Z,8.00
2018-06-19T17:02:37.318Z,8.03
2018-06-19T17:05:04.683Z,5.07
2018-06-19T17:07:31.913Z,7.70
2018-06-19T17:09:59.213Z,6.10
2018-06-19T17:12:26.484Z,6.33
2018-06-19T17:14:53.779Z,8.57
2018-06-19T17:17:21.067Z,9.33
2018-06-19T17:19:48.476Z,7.27
2018-06-19T17:22:15.810Z,14.77
2018-06-19T17:24:43.082Z,9.53
2018-06-19T17:27:10.715Z,7.70
2018-06-19T17:29:38.025Z,3.53
2018-06-19T17:32:05.264Z,5.93
2018-06-19T17:36:59.328Z,4.70
2018-06-19T17:41:53.352Z,8.60
2018-06-19T17:44:20.602Z,9.08
2018-06-19T17:46:47.833Z,9.00
2018-06-19T17:51:42.106Z,8.10
2018-06-19T17:54:09.390Z,10.63
2018-06-19T17:56:36.590Z,7.07
2018-06-19T17:59:04.058Z,9.43
2018-06-19T18:01:31.325Z,6.10
2018-06-19T18:03:58.664Z,5.00
2018-06-19T18:06:25.891Z,11.20
2018-06-19T18:08:53.184Z,5.10
2018-06-19T18:11:20.433Z,6.60
2018-06-19T18:13:47.801Z,6.00
2018-06-19T18:16:15.125Z,7.07
2018-06-19T18:18:42.486Z,9.47
2018-06-19T18:21:09.839Z,10.10
2018-06-19T18:23:37.207Z,8.67
2018-06-19T18:26:04.650Z,7.80
2018-06-19T18:28:31.968Z,8.30
2018-06-19T18:30:59.264Z,12.10
2018-06-19T18:33:26.481Z,7.73
2018-06-19T18:35:53.869Z,10.10
2018-06-19T18:38:21.169Z,12.60
2018-06-19T18:40:48.677Z,7.83
2018-06-19T18:43:16.187Z,8.13
2018-06-19T18:45:43.546Z,13.83
2018-06-19T18:48:10.953Z,13.83
2018-06-19T18:50:38.209Z,13.00
2018-06-19T18:53:05.523Z,12.53
2018-06-19T18:55:32.809Z,8.85
2018-06-19T18:58:00.074Z,8.17
2018-06-19T19:00:27.371Z,8.93
2018-06-19T19:02:54.641Z,8.28
2018-06-19T19:05:21.924Z,10.32
2018-06-19T19:07:49.230Z,9.55
2018-06-19T19:10:22.432Z,9.30
2018-06-19T19:12:49.922Z,9.93
2018-06-19T19:15:22.839Z,10.45
2018-06-19T19:17:55.896Z,9.93
2018-06-19T19:20:23.241Z,10.23
2018-06-19T19:22:50.465Z,10.15
2018-06-19T19:25:17.742Z,10.13
2018-06-19T19:27:50.682Z,10.75
2018-06-19T19:30:18.002Z,14.40
2018-06-19T19:32:45.267Z,10.98
2018-06-19T19:35:12.788Z,8.53
2018-06-19T19:37:45.678Z,12.82
2018-06-19T19:40:13.026Z,8.03
2018-06-19T19:42:40.289Z,8.88
2018-06-19T19:45:07.608Z,8.80
2018-06-19T19:47:40.556Z,11.75
2018-06-19T19:50:07.831Z,10.63
2018-06-19T19:52:35.157Z,12.95
2018-06-19T19:55:02.438Z,9.43
2018-06-19T19:57:36.118Z,7.23
2018-06-19T20:00:04.473Z,13.87
2018-06-19T20:02:31.707Z,12.93
2018-06-19T20:04:59.161Z,8.97
2018-06-19T20:07:26.389Z,9.60
2018-06-19T20:09:53.621Z,11.13
2018-06-19T20:12:20.998Z,8.30
2018-06-19T20:14:48.253Z,8.17
2018-06-19T20:17:15.726Z,14.17
2018-06-19T20:19:42.944Z,6.73
2018-06-19T20:22:10.150Z,9.40
2018-06-19T20:24:37.472Z,10.77
2018-06-19T20:27:04.792Z,8.47
2018-06-19T20:29:32.090Z,10.27
2018-06-19T20:31:59.410Z,15.67
2018-06-19T20:34:26.790Z,16.60
2018-06-19T20:36:54.018Z,13.63
2018-06-19T20:39:21.330Z,9.50
2018-06-19T20:41:48.855Z,14.35
2018-06-19T20:44:16.185Z,13.63
2018-06-19T20:46:43.520Z,15.07
2018-06-19T20:49:10.772Z,11.47
2018-06-19T20:51:38.088Z,12.07
2018-06-19T20:54:05.395Z,13.23
2018-06-19T20:56:32.743Z,13.17
2018-06-19T20:59:00.104Z,8.93
2018-06-19T21:01:27.480Z,20.53
2018-06-19T21:03:54.845Z,11.30
2018-06-19T21:06:22.187Z,9.00
2018-06-19T21:08:49.565Z,12.70
2018-06-19T21:11:16.981Z,12.87
2018-06-19T21:13:44.329Z,16.67
2018-06-19T21:16:12.479Z,11.80
2018-06-19T21:18:39.859Z,22.50
2018-06-19T21:21:07.870Z,11.47
2018-06-19T21:23:35.665Z,16.40
2018-06-19T21:26:03.730Z,13.37
2018-06-19T21:28:31.056Z,12.00
2018-06-19T21:30:58.784Z,18.83
2018-06-19T21:33:27.346Z,13.13
2018-06-19T21:35:54.715Z,10.83
2018-06-19T21:38:22.091Z,17.10
2018-06-19T21:40:49.417Z,17.93
2018-06-19T21:43:17.135Z,12.53
2018-06-19T21:45:44.444Z,11.97
2018-06-19T21:48:11.784Z,9.43
2018-06-19T21:50:39.145Z,13.13
2018-06-19T21:53:06.561Z,16.33
2018-06-19T21:55:33.908Z,16.33
2018-06-19T21:58:01.250Z,14.90
2018-06-19T22:00:29.477Z,17.57
2018-06-19T22:02:56.911Z,12.50
2018-06-19T22:05:24.272Z,9.53
2018-06-19T22:07:51.716Z,14.87
2018-06-19T22:10:19.024Z,10.37
2018-06-19T22:12:46.358Z,12.53
2018-06-19T22:15:14.049Z,13.13
2018-06-19T22:17:41.399Z,9.27
2018-06-19T22:20:08.742Z,14.67
2018-06-19T22:22:36.080Z,16.03
2018-06-19T22:25:03.535Z,14.47
2018-06-19T22:27:30.860Z,7.70
2018-06-19T22:29:58.205Z,12.17
2018-06-19T22:32:25.637Z,10.13
2018-06-19T22:34:53.037Z,8.07
2018-06-19T22:37:20.484Z,16.40
2018-06-19T22:39:47.892Z,8.37
2018-06-19T22:42:15.244Z,13.43
2018-06-19T22:44:42.600Z,6.93
2018-06-19T22:47:09.973Z,11.37
2018-06-19T22:49:37.412Z,9.77
2018-06-19T22:52:04.752Z,6.83
2018-06-19T22:54:32.113Z,10.13
2018-06-19T22:56:59.720Z,11.77
2018-06-19T22:59:27.069Z,17.40
2018-06-19T23:01:54.433Z,14.93
2018-06-19T23:04:21.768Z,12.20
2018-06-19T23:06:49.124Z,17.23
2018-06-19T23:09:16.528Z,9.33
2018-06-19T23:11:43.903Z,12.27
2018-06-19T23:14:11.312Z,12.03
2018-06-19T23:16:38.646Z,12.37
2018-06-19T23:19:06.075Z,10.03
2018-06-19T23:21:33.415Z,14.30
2018-06-19T23:24:00.775Z,8.43
2018-06-19T23:26:28.148Z,9.80
2018-06-19T23:28:55.547Z,9.40
2018-06-19T23:31:22.902Z,13.17
2018-06-19T23:33:50.264Z,8.77
2018-06-19T23:36:17.687Z,11.47
2018-06-19T23:38:45.064Z,21.93
2018-06-19T23:41:12.531Z,9.80
2018-06-19T23:43:39.899Z,9.13
2018-06-19T23:46:07.269Z,14.13
2018-06-19T23:48:34.736Z,12.97
2018-06-19T23:51:02.099Z,8.30
2018-06-19T23:53:29.416Z,12.00
2018-06-19T23:55:56.771Z,17.17
2018-06-19T23:58:24.155Z,12.50
